sensor_id;sensor_type;location;lat;lon;timestamp;pressure;altitude;pressure_sealevel;temperature;humidity
15267;BME280;7735;49.144;8.668;2023-04-06T00:00:31;100479.44;;;6.55;46.18
15267;BME280;7735;49.144;8.668;2023-04-06T00:02:58;100467.28;;;6.52;47.05
15267;BME280;7735;49.144;8.668;2023-04-06T00:05:25;100472.44;;;6.49;46.41
15267;BME280;7735;49.144;8.668;2023-04-06T00:07:53;100466.38;;;6.46;47.15
15267;BME280;7735;49.144;8.668;2023-04-06T00:10:21;100468.03;;;6.44;47.09
15267;BME280;7735;49.144;8.668;2023-04-06T00:12:49;100468.88;;;6.41;46.74
15267;BME280;7735;49.144;8.668;2023-04-06T00:15:16;100466.28;;;6.40;47.06
15267;BME280;7735;49.144;8.668;2023-04-06T00:17:44;100467.97;;;6.38;46.83
15267;BME280;7735;49.144;8.668;2023-04-06T00:20:11;100465.38;;;6.36;46.90
15267;BME280;7735;49.144;8.668;2023-04-06T00:22:38;100462.78;;;6.36;46.83
15267;BME280;7735;49.144;8.668;2023-04-06T00:25:06;100449.88;;;6.38;46.97
15267;BME280;7735;49.144;8.668;2023-04-06T00:27:33;100462.00;;;6.43;46.56
15267;BME280;7735;49.144;8.668;2023-04-06T00:30:01;100455.97;;;6.44;46.59
15267;BME280;7735;49.144;8.668;2023-04-06T00:32:28;100450.78;;;6.41;46.76
15267;BME280;7735;49.144;8.668;2023-04-06T00:34:55;100451.59;;;6.37;46.63
15267;BME280;7735;49.144;8.668;2023-04-06T00:37:22;100451.53;;;6.34;46.71
15267;BME280;7735;49.144;8.668;2023-04-06T00:39:49;100461.88;;;6.34;46.83
15267;BME280;7735;49.144;8.668;2023-04-06T00:42:17;100444.63;;;6.33;47.35
15267;BME280;7735;49.144;8.668;2023-04-06T00:44:50;100450.66;;;6.32;46.97
15267;BME280;7735;49.144;8.668;2023-04-06T00:47:18;100449.75;;;6.30;46.92
15267;BME280;7735;49.144;8.668;2023-04-06T00:49:45;100445.38;;;6.26;47.25
15267;BME280;7735;49.144;8.668;2023-04-06T00:52:12;100444.50;;;6.25;47.14
15267;BME280;7735;49.144;8.668;2023-04-06T00:54:39;100446.19;;;6.22;46.84
15267;BME280;7735;49.144;8.668;2023-04-06T00:57:05;100441.03;;;6.22;46.84
15267;BME280;7735;49.144;8.668;2023-04-06T00:59:32;100440.22;;;6.26;46.98
15267;BME280;7735;49.144;8.668;2023-04-06T01:01:59;100439.41;;;6.30;46.93
15267;BME280;7735;49.144;8.668;2023-04-06T01:04:27;100435.13;;;6.31;46.61
15267;BME280;7735;49.144;8.668;2023-04-06T01:06:54;100438.50;;;6.27;46.83
15267;BME280;7735;49.144;8.668;2023-04-06T01:09:22;100435.88;;;6.25;46.68
15267;BME280;7735;49.144;8.668;2023-04-06T01:11:48;100433.28;;;6.23;47.20
15267;BME280;7735;49.144;8.668;2023-04-06T01:14:15;100431.56;;;6.22;46.74
15267;BME280;7735;49.144;8.668;2023-04-06T01:16:42;100433.25;;;6.19;47.02
15267;BME280;7735;49.144;8.668;2023-04-06T01:19:09;100432.31;;;6.17;46.95
15267;BME280;7735;49.144;8.668;2023-04-06T01:21:38;100430.59;;;6.16;47.19
15267;BME280;7735;49.144;8.668;2023-04-06T01:24:08;100433.13;;;6.13;46.77
15267;BME280;7735;49.144;8.668;2023-04-06T01:26:37;100422.72;;;6.08;46.88
15267;BME280;7735;49.144;8.668;2023-04-06T01:29:04;100421.84;;;6.08;46.90
15267;BME280;7735;49.144;8.668;2023-04-06T01:31:31;100416.66;;;6.05;47.58
15267;BME280;7735;49.144;8.668;2023-04-06T01:33:57;100417.47;;;6.02;47.09
15267;BME280;7735;49.144;8.668;2023-04-06T01:36:24;100414.03;;;6.02;47.45
15267;BME280;7735;49.144;8.668;2023-04-06T01:38:51;100412.25;;;6.01;47.08
15267;BME280;7735;49.144;8.668;2023-04-06T01:41:19;100417.41;;;5.97;47.26
15267;BME280;7735;49.144;8.668;2023-04-06T01:43:47;100410.47;;;5.95;47.74
15267;BME280;7735;49.144;8.668;2023-04-06T01:46:14;100415.63;;;5.93;47.87
15267;BME280;7735;49.144;8.668;2023-04-06T01:48:40;100408.75;;;5.94;47.72
15267;BME280;7735;49.144;8.668;2023-04-06T01:51:07;100405.31;;;5.95;47.41
15267;BME280;7735;49.144;8.668;2023-04-06T01:53:34;100414.75;;;5.93;47.66
15267;BME280;7735;49.144;8.668;2023-04-06T01:56:01;100415.56;;;5.90;47.79
15267;BME280;7735;49.144;8.668;2023-04-06T01:58:29;100411.22;;;5.89;47.76
15267;BME280;7735;49.144;8.668;2023-04-06T02:00:56;100410.31;;;5.86;47.69
15267;BME280;7735;49.144;8.668;2023-04-06T02:03:22;100418.03;;;5.84;47.97
15267;BME280;7735;49.144;8.668;2023-04-06T02:05:49;100418.06;;;5.87;48.24
15267;BME280;7735;49.144;8.668;2023-04-06T02:08:16;100414.66;;;5.90;47.85
15267;BME280;7735;49.144;8.668;2023-04-06T02:10:43;100418.94;;;5.88;47.90
15267;BME280;7735;49.144;8.668;2023-04-06T02:13:10;100418.06;;;5.87;47.75
15267;BME280;7735;49.144;8.668;2023-04-06T02:15:38;100412.06;;;5.90;47.47
15267;BME280;7735;49.144;8.668;2023-04-06T02:18:05;100418.22;;;5.93;47.70
15267;BME280;7735;49.144;8.668;2023-04-06T02:20:31;100407.03;;;5.96;47.87
15267;BME280;7735;49.144;8.668;2023-04-06T02:22:58;100407.91;;;5.95;47.58
15267;BME280;7735;49.144;8.668;2023-04-06T02:25:25;100411.34;;;5.95;47.66
15267;BME280;7735;49.144;8.668;2023-04-06T02:27:53;100409.66;;;5.97;47.50
15267;BME280;7735;49.144;8.668;2023-04-06T02:30:20;100405.41;;;6.01;47.75
15267;BME280;7735;49.144;8.668;2023-04-06T02:32:48;100402.84;;;6.03;47.64
15267;BME280;7735;49.144;8.668;2023-04-06T02:35:14;100408.00;;;6.03;47.37
15267;BME280;7735;49.144;8.668;2023-04-06T02:37:41;100404.59;;;6.04;47.40
15267;BME280;7735;49.144;8.668;2023-04-06T02:40:09;100395.94;;;6.02;48.23
15267;BME280;7735;49.144;8.668;2023-04-06T02:42:36;100401.03;;;5.99;47.53
15267;BME280;7735;49.144;8.668;2023-04-06T02:45:04;100407.03;;;5.94;47.62
15267;BME280;7735;49.144;8.668;2023-04-06T02:47:30;100407.88;;;5.93;47.67
15267;BME280;7735;49.144;8.668;2023-04-06T02:49:59;100406.97;;;5.91;47.63
15267;BME280;7735;49.144;8.668;2023-04-06T02:52:25;100407.75;;;5.87;48.05
15267;BME280;7735;49.144;8.668;2023-04-06T02:54:52;100405.13;;;5.84;47.73
15267;BME280;7735;49.144;8.668;2023-04-06T02:57:19;100400.88;;;5.89;47.77
15267;BME280;7735;49.144;8.668;2023-04-06T02:59:46;100394.88;;;5.90;48.07
15267;BME280;7735;49.144;8.668;2023-04-06T03:02:13;100396.69;;;5.93;48.35
15267;BME280;7735;49.144;8.668;2023-04-06T03:04:39;100401.00;;;5.94;48.05
15267;BME280;7735;49.144;8.668;2023-04-06T03:07:07;100400.19;;;5.98;48.09
15267;BME280;7735;49.144;8.668;2023-04-06T03:09:36;100392.44;;;6.00;47.91
15267;BME280;7735;49.144;8.668;2023-04-06T03:12:03;100395.94;;;6.02;48.15
15267;BME280;7735;49.144;8.668;2023-04-06T03:14:30;100390.78;;;6.02;47.88
15267;BME280;7735;49.144;8.668;2023-04-06T03:16:57;100398.47;;;6.00;47.88
15267;BME280;7735;49.144;8.668;2023-04-06T03:19:24;100388.09;;;5.97;48.24
15267;BME280;7735;49.144;8.668;2023-04-06T03:21:51;100395.81;;;5.94;48.67
15267;BME280;7735;49.144;8.668;2023-04-06T03:24:19;100391.50;;;5.93;48.09
15267;BME280;7735;49.144;8.668;2023-04-06T03:26:45;100393.25;;;5.95;48.17
15267;BME280;7735;49.144;8.668;2023-04-06T03:29:12;100395.03;;;6.00;48.37
15267;BME280;7735;49.144;8.668;2023-04-06T03:31:39;100395.09;;;6.03;48.48
15267;BME280;7735;49.144;8.668;2023-04-06T03:34:05;100393.38;;;6.03;48.28
15267;BME280;7735;49.144;8.668;2023-04-06T03:36:34;100398.53;;;6.02;47.90
15267;BME280;7735;49.144;8.668;2023-04-06T03:39:01;100401.88;;;5.96;48.05
15267;BME280;7735;49.144;8.668;2023-04-06T03:41:29;100400.88;;;5.89;48.25
15267;BME280;7735;49.144;8.668;2023-04-06T03:43:56;100402.47;;;5.81;48.31
15267;BME280;7735;49.144;8.668;2023-04-06T03:46:22;100411.88;;;5.76;48.48
15267;BME280;7735;49.144;8.668;2023-04-06T03:48:49;100408.34;;;5.73;48.81
15267;BME280;7735;49.144;8.668;2023-04-06T03:51:16;100416.94;;;5.72;49.05
15267;BME280;7735;49.144;8.668;2023-04-06T03:53:43;100406.72;;;5.76;49.11
15267;BME280;7735;49.144;8.668;2023-04-06T03:56:09;100411.03;;;5.77;48.95
15267;BME280;7735;49.144;8.668;2023-04-06T03:58:46;100411.94;;;5.82;48.85
15267;BME280;7735;49.144;8.668;2023-04-06T04:01:16;100416.31;;;5.83;48.74
15267;BME280;7735;49.144;8.668;2023-04-06T04:03:45;100420.56;;;5.81;48.99
15267;BME280;7735;49.144;8.668;2023-04-06T04:06:12;100414.50;;;5.79;48.94
15267;BME280;7735;49.144;8.668;2023-04-06T04:08:42;100414.53;;;5.82;48.93
15267;BME280;7735;49.144;8.668;2023-04-06T04:11:08;100416.34;;;5.86;48.71
15267;BME280;7735;49.144;8.668;2023-04-06T04:13:35;100414.59;;;5.85;48.85
15267;BME280;7735;49.144;8.668;2023-04-06T04:16:06;100417.97;;;5.81;48.71
15267;BME280;7735;49.144;8.668;2023-04-06T04:18:33;100422.25;;;5.79;48.85
15267;BME280;7735;49.144;8.668;2023-04-06T04:21:00;100423.97;;;5.79;48.98
15267;BME280;7735;49.144;8.668;2023-04-06T04:23:26;100423.06;;;5.75;48.63
15267;BME280;7735;49.144;8.668;2023-04-06T04:25:53;100422.09;;;5.70;48.87
15267;BME280;7735;49.144;8.668;2023-04-06T04:28:20;100427.25;;;5.70;48.76
15267;BME280;7735;49.144;8.668;2023-04-06T04:30:47;100427.25;;;5.68;48.48
15267;BME280;7735;49.144;8.668;2023-04-06T04:33:15;100432.38;;;5.67;48.83
15267;BME280;7735;49.144;8.668;2023-04-06T04:35:42;100436.63;;;5.65;49.09
15267;BME280;7735;49.144;8.668;2023-04-06T04:38:08;100429.66;;;5.58;48.73
15267;BME280;7735;49.144;8.668;2023-04-06T04:40:36;100427.00;;;5.55;49.34
15267;BME280;7735;49.144;8.668;2023-04-06T04:43:03;100442.50;;;5.55;49.41
15267;BME280;7735;49.144;8.668;2023-04-06T04:45:30;100427.97;;;5.60;49.24
15267;BME280;7735;49.144;8.668;2023-04-06T04:47:57;100435.84;;;5.69;49.03
15267;BME280;7735;49.144;8.668;2023-04-06T04:50:25;100447.19;;;5.77;48.99
15267;BME280;7735;49.144;8.668;2023-04-06T04:52:51;100447.19;;;5.77;48.94
15267;BME280;7735;49.144;8.668;2023-04-06T04:55:18;100440.28;;;5.75;49.11
15267;BME280;7735;49.144;8.668;2023-04-06T04:57:45;100441.06;;;5.72;49.19
15267;BME280;7735;49.144;8.668;2023-04-06T05:00:13;100441.03;;;5.69;48.99
15267;BME280;7735;49.144;8.668;2023-04-06T05:02:40;100443.59;;;5.69;49.22
15267;BME280;7735;49.144;8.668;2023-04-06T05:05:07;100448.81;;;5.72;49.11
15267;BME280;7735;49.144;8.668;2023-04-06T05:07:36;100449.69;;;5.74;49.00
15267;BME280;7735;49.144;8.668;2023-04-06T05:10:03;100459.22;;;5.75;48.76
15267;BME280;7735;49.144;8.668;2023-04-06T05:12:29;100449.75;;;5.76;49.10
15267;BME280;7735;49.144;8.668;2023-04-06T05:14:56;100456.63;;;5.75;48.69
15267;BME280;7735;49.144;8.668;2023-04-06T05:17:23;100457.53;;;5.77;48.87
15267;BME280;7735;49.144;8.668;2023-04-06T05:19:51;100454.03;;;5.75;48.79
15267;BME280;7735;49.144;8.668;2023-04-06T05:22:17;100464.38;;;5.75;48.94
15267;BME280;7735;49.144;8.668;2023-04-06T05:24:45;100457.44;;;5.74;48.73
15267;BME280;7735;49.144;8.668;2023-04-06T05:27:12;100466.91;;;5.74;48.74
15267;BME280;7735;49.144;8.668;2023-04-06T05:29:39;100455.72;;;5.73;48.53
15267;BME280;7735;49.144;8.668;2023-04-06T05:32:06;100455.66;;;5.70;48.83
15267;BME280;7735;49.144;8.668;2023-04-06T05:34:33;100468.59;;;5.70;48.72
15267;BME280;7735;49.144;8.668;2023-04-06T05:37:00;100466.00;;;5.70;48.92
15267;BME280;7735;49.144;8.668;2023-04-06T05:39:27;100472.84;;;5.68;49.15
15267;BME280;7735;49.144;8.668;2023-04-06T05:41:55;100476.31;;;5.70;49.18
15267;BME280;7735;49.144;8.668;2023-04-06T05:44:22;100481.50;;;5.70;49.03
15267;BME280;7735;49.144;8.668;2023-04-06T05:46:48;100475.47;;;5.69;48.57
15267;BME280;7735;49.144;8.668;2023-04-06T05:49:15;100476.34;;;5.72;48.94
15267;BME280;7735;49.144;8.668;2023-04-06T05:51:42;100484.09;;;5.72;49.19
15267;BME280;7735;49.144;8.668;2023-04-06T05:54:08;100484.97;;;5.72;48.89
15267;BME280;7735;49.144;8.668;2023-04-06T05:56:35;100479.88;;;5.75;49.36
15267;BME280;7735;49.144;8.668;2023-04-06T05:59:03;100489.34;;;5.75;49.35
15267;BME280;7735;49.144;8.668;2023-04-06T06:01:30;100485.91;;;5.76;49.26
15267;BME280;7735;49.144;8.668;2023-04-06T06:03:57;100479.91;;;5.77;49.06
15267;BME280;7735;49.144;8.668;2023-04-06T06:06:23;100488.56;;;5.80;49.36
15267;BME280;7735;49.144;8.668;2023-04-06T06:08:51;100490.31;;;5.83;49.17
15267;BME280;7735;49.144;8.668;2023-04-06T06:11:18;100490.34;;;5.84;49.08
15267;BME280;7735;49.144;8.668;2023-04-06T06:13:45;100495.56;;;5.87;49.34
15267;BME280;7735;49.144;8.668;2023-04-06T06:16:13;100493.81;;;5.86;49.00
15267;BME280;7735;49.144;8.668;2023-04-06T06:18:39;100491.25;;;5.86;49.28
15267;BME280;7735;49.144;8.668;2023-04-06T06:21:06;100492.22;;;5.91;49.06
15267;BME280;7735;49.144;8.668;2023-04-06T06:23:33;100486.25;;;5.94;48.94
15267;BME280;7735;49.144;8.668;2023-04-06T06:26:00;100489.75;;;5.99;49.20
15267;BME280;7735;49.144;8.668;2023-04-06T06:28:26;100492.44;;;6.04;48.76
15267;BME280;7735;49.144;8.668;2023-04-06T06:30:55;100489.88;;;6.07;49.09
15267;BME280;7735;49.144;8.668;2023-04-06T06:33:23;100491.69;;;6.11;48.95
15267;BME280;7735;49.144;8.668;2023-04-06T06:35:51;100492.56;;;6.13;49.08
15267;BME280;7735;49.144;8.668;2023-04-06T06:38:18;100485.72;;;6.15;49.26
15267;BME280;7735;49.144;8.668;2023-04-06T06:40:45;100481.50;;;6.21;49.47
15267;BME280;7735;49.144;8.668;2023-04-06T06:43:12;100483.31;;;6.27;49.47
15267;BME280;7735;49.144;8.668;2023-04-06T06:45:40;100487.66;;;6.28;49.29
15267;BME280;7735;49.144;8.668;2023-04-06T06:48:07;100484.22;;;6.29;48.95
15267;BME280;7735;49.144;8.668;2023-04-06T06:50:35;100484.22;;;6.29;49.00
15267;BME280;7735;49.144;8.668;2023-04-06T06:53:01;100491.13;;;6.30;48.82
15267;BME280;7735;49.144;8.668;2023-04-06T06:55:28;100475.66;;;6.33;49.26
15267;BME280;7735;49.144;8.668;2023-04-06T06:57:55;100480.88;;;6.36;49.12
15267;BME280;7735;49.144;8.668;2023-04-06T07:00:22;100482.75;;;6.46;49.75
15267;BME280;7735;49.144;8.668;2023-04-06T07:02:49;100486.31;;;6.55;49.56
15267;BME280;7735;49.144;8.668;2023-04-06T07:05:16;100484.63;;;6.60;49.32
15267;BME280;7735;49.144;8.668;2023-04-06T07:07:44;100477.81;;;6.65;49.68
15267;BME280;7735;49.144;8.668;2023-04-06T07:10:14;100477.00;;;6.67;49.47
15267;BME280;7735;49.144;8.668;2023-04-06T07:12:41;100476.16;;;6.70;48.75
15267;BME280;7735;49.144;8.668;2023-04-06T07:15:09;100483.16;;;6.77;48.89
15267;BME280;7735;49.144;8.668;2023-04-06T07:17:35;100476.34;;;6.82;48.90
15267;BME280;7735;49.144;8.668;2023-04-06T07:20:03;100474.72;;;6.90;48.84
15267;BME280;7735;49.144;8.668;2023-04-06T07:22:30;100476.56;;;7.00;49.22
15267;BME280;7735;49.144;8.668;2023-04-06T07:24:58;100474.94;;;7.08;48.72
15267;BME280;7735;49.144;8.668;2023-04-06T07:27:25;100480.13;;;7.12;48.67
15267;BME280;7735;49.144;8.668;2023-04-06T07:29:52;100479.34;;;7.16;47.73
15267;BME280;7735;49.144;8.668;2023-04-06T07:32:19;100471.59;;;7.20;47.50
15267;BME280;7735;49.144;8.668;2023-04-06T07:34:45;100469.97;;;7.27;48.20
15267;BME280;7735;49.144;8.668;2023-04-06T07:37:12;100475.16;;;7.30;47.41
15267;BME280;7735;49.144;8.668;2023-04-06T07:39:39;100471.78;;;7.34;47.93
15267;BME280;7735;49.144;8.668;2023-04-06T07:42:07;100468.34;;;7.39;47.28
15267;BME280;7735;49.144;8.668;2023-04-06T07:44:35;100475.31;;;7.45;47.24
15267;BME280;7735;49.144;8.668;2023-04-06T07:47:02;100473.63;;;7.50;47.19
15267;BME280;7735;49.144;8.668;2023-04-06T07:49:28;100471.97;;;7.57;46.94
15267;BME280;7735;49.144;8.668;2023-04-06T07:51:56;100475.50;;;7.63;46.99
15267;BME280;7735;49.144;8.668;2023-04-06T07:54:22;100477.31;;;7.71;46.87
15267;BME280;7735;49.144;8.668;2023-04-06T07:56:49;100473.94;;;7.78;47.00
15267;BME280;7735;49.144;8.668;2023-04-06T07:59:18;100479.13;;;7.81;46.32
15267;BME280;7735;49.144;8.668;2023-04-06T08:01:45;100465.31;;;7.85;46.76
15267;BME280;7735;49.144;8.668;2023-04-06T08:04:12;100474.03;;;7.90;46.59
15267;BME280;7735;49.144;8.668;2023-04-06T08:06:39;100467.13;;;7.92;46.51
15267;BME280;7735;49.144;8.668;2023-04-06T08:09:06;100466.31;;;7.99;46.53
15267;BME280;7735;49.144;8.668;2023-04-06T08:11:33;100468.97;;;8.05;46.07
15267;BME280;7735;49.144;8.668;2023-04-06T08:14:00;100461.22;;;8.10;45.95
15267;BME280;7735;49.144;8.668;2023-04-06T08:16:28;100463.00;;;8.15;46.34
15267;BME280;7735;49.144;8.668;2023-04-06T08:18:55;100459.53;;;8.19;45.58
15267;BME280;7735;49.144;8.668;2023-04-06T08:21:21;100457.84;;;8.23;46.22
15267;BME280;7735;49.144;8.668;2023-04-06T08:23:48;100463.94;;;8.28;45.47
15267;BME280;7735;49.144;8.668;2023-04-06T08:26:21;100458.78;;;8.31;45.80
15267;BME280;7735;49.144;8.668;2023-04-06T08:28:48;100454.50;;;8.36;45.45
15267;BME280;7735;49.144;8.668;2023-04-06T08:31:15;100461.44;;;8.39;46.06
15267;BME280;7735;49.144;8.668;2023-04-06T08:33:43;100463.22;;;8.46;45.91
15267;BME280;7735;49.144;8.668;2023-04-06T08:36:11;100462.38;;;8.53;45.24
15267;BME280;7735;49.144;8.668;2023-04-06T08:38:38;100460.69;;;8.58;45.47
15267;BME280;7735;49.144;8.668;2023-04-06T08:41:09;100471.09;;;8.64;45.76
15267;BME280;7735;49.144;8.668;2023-04-06T08:43:42;100458.97;;;8.65;46.00
15267;BME280;7735;49.144;8.668;2023-04-06T08:46:10;100459.03;;;8.69;45.86
15267;BME280;7735;49.144;8.668;2023-04-06T08:48:38;100471.13;;;8.73;45.31
15267;BME280;7735;49.144;8.668;2023-04-06T08:51:06;100466.84;;;8.77;45.51
15267;BME280;7735;49.144;8.668;2023-04-06T08:53:34;100467.72;;;8.82;45.44
15267;BME280;7735;49.144;8.668;2023-04-06T08:56:01;100459.97;;;8.87;45.55
15267;BME280;7735;49.144;8.668;2023-04-06T08:58:32;100461.72;;;8.92;45.62
15267;BME280;7735;49.144;8.668;2023-04-06T09:01:00;100464.34;;;8.94;45.68
15267;BME280;7735;49.144;8.668;2023-04-06T09:03:29;100462.59;;;8.96;45.38
15267;BME280;7735;49.144;8.668;2023-04-06T09:05:58;100464.34;;;8.98;45.51
15267;BME280;7735;49.144;8.668;2023-04-06T09:08:27;100459.16;;;9.01;45.83
15267;BME280;7735;49.144;8.668;2023-04-06T09:10:53;100457.44;;;9.05;45.92
15267;BME280;7735;49.144;8.668;2023-04-06T09:13:20;100453.16;;;9.12;45.65
15267;BME280;7735;49.144;8.668;2023-04-06T09:15:58;100451.44;;;9.21;44.88
15267;BME280;7735;49.144;8.668;2023-04-06T09:18:28;100450.59;;;9.31;44.69
15267;BME280;7735;49.144;8.668;2023-04-06T09:21:00;100451.47;;;9.38;45.08
15267;BME280;7735;49.144;8.668;2023-04-06T09:23:28;100448.00;;;9.41;44.98
15267;BME280;7735;49.144;8.668;2023-04-06T09:26:08;100450.59;;;9.41;44.78
15267;BME280;7735;49.144;8.668;2023-04-06T09:28:46;100444.56;;;9.46;44.55
15267;BME280;7735;49.144;8.668;2023-04-06T09:31:14;100449.75;;;9.52;44.75
15267;BME280;7735;49.144;8.668;2023-04-06T09:33:43;100435.06;;;9.56;44.73
15267;BME280;7735;49.144;8.668;2023-04-06T09:36:10;100439.38;;;9.60;44.22
15267;BME280;7735;49.144;8.668;2023-04-06T09:38:51;100434.19;;;9.63;44.67
15267;BME280;7735;49.144;8.668;2023-04-06T09:41:22;100433.31;;;9.70;44.43
15267;BME280;7735;49.144;8.668;2023-04-06T09:43:49;100437.66;;;9.74;44.25
15267;BME280;7735;49.144;8.668;2023-04-06T09:46:17;100433.31;;;9.76;44.05
15267;BME280;7735;49.144;8.668;2023-04-06T09:48:44;100431.56;;;9.78;44.00
15267;BME280;7735;49.144;8.668;2023-04-06T09:51:13;100441.13;;;9.85;43.43
15267;BME280;7735;49.144;8.668;2023-04-06T09:53:44;100435.06;;;9.91;43.34
15267;BME280;7735;49.144;8.668;2023-04-06T09:56:18;100422.88;;;10.43;41.60
15267;BME280;7735;49.144;8.668;2023-04-06T09:58:48;100423.59;;;10.84;40.66
15267;BME280;7735;49.144;8.668;2023-04-06T10:01:18;100420.94;;;10.91;40.61
15267;BME280;7735;49.144;8.668;2023-04-06T10:03:54;100426.16;;;10.91;40.14
15267;BME280;7735;49.144;8.668;2023-04-06T10:06:23;100420.09;;;10.86;39.98
15267;BME280;7735;49.144;8.668;2023-04-06T10:08:55;100419.28;;;10.78;39.99
15267;BME280;7735;49.144;8.668;2023-04-06T10:11:23;100428.00;;;10.71;40.11
15267;BME280;7735;49.144;8.668;2023-04-06T10:13:50;100430.59;;;10.72;40.25
15267;BME280;7735;49.144;8.668;2023-04-06T10:16:17;100420.94;;;10.94;40.30
15267;BME280;7735;49.144;8.668;2023-04-06T10:18:47;100422.53;;;11.18;39.74
15267;BME280;7735;49.144;8.668;2023-04-06T10:21:20;100420.63;;;11.49;38.57
15267;BME280;7735;49.144;8.668;2023-04-06T10:23:49;100417.94;;;11.58;38.25
15267;BME280;7735;49.144;8.668;2023-04-06T10:26:20;100418.75;;;11.65;37.54
15267;BME280;7735;49.144;8.668;2023-04-06T10:28:48;100410.06;;;11.64;37.82
15267;BME280;7735;49.144;8.668;2023-04-06T10:31:23;100403.13;;;11.62;37.29
15267;BME280;7735;49.144;8.668;2023-04-06T10:33:54;100399.69;;;11.58;37.00
15267;BME280;7735;49.144;8.668;2023-04-06T10:36:23;100406.63;;;11.61;36.30
15267;BME280;7735;49.144;8.668;2023-04-06T10:38:54;100403.81;;;11.88;35.63
15267;BME280;7735;49.144;8.668;2023-04-06T10:41:22;100395.03;;;11.97;34.69
15267;BME280;7735;49.144;8.668;2023-04-06T10:43:55;100401.97;;;11.98;34.50
15267;BME280;7735;49.144;8.668;2023-04-06T10:46:25;100397.66;;;11.97;34.32
15267;BME280;7735;49.144;8.668;2023-04-06T10:48:52;100398.47;;;12.02;33.71
15267;BME280;7735;49.144;8.668;2023-04-06T10:51:19;100399.28;;;12.07;33.41
15267;BME280;7735;49.144;8.668;2023-04-06T10:53:53;100400.06;;;12.15;33.05
15267;BME280;7735;49.144;8.668;2023-04-06T10:56:24;100398.28;;;12.22;33.29
15267;BME280;7735;49.144;8.668;2023-04-06T10:58:54;100393.91;;;12.24;33.30
15267;BME280;7735;49.144;8.668;2023-04-06T11:01:23;100387.72;;;12.33;33.21
15267;BME280;7735;49.144;8.668;2023-04-06T11:03:51;100390.28;;;12.36;33.06
15267;BME280;7735;49.144;8.668;2023-04-06T11:06:19;100381.59;;;12.37;33.34
15267;BME280;7735;49.144;8.668;2023-04-06T11:08:46;100383.31;;;12.36;33.23
15267;BME280;7735;49.144;8.668;2023-04-06T11:11:14;100384.16;;;12.40;33.20
15267;BME280;7735;49.144;8.668;2023-04-06T11:13:46;100379.78;;;12.42;33.37
15267;BME280;7735;49.144;8.668;2023-04-06T11:16:14;100378.00;;;12.47;33.84
15267;BME280;7735;49.144;8.668;2023-04-06T11:18:49;100373.59;;;12.51;34.09
15267;BME280;7735;49.144;8.668;2023-04-06T11:21:40;100374.41;;;12.54;33.85
15267;BME280;7735;49.144;8.668;2023-04-06T11:24:10;100367.44;;;12.56;34.07
15267;BME280;7735;49.144;8.668;2023-04-06T11:26:40;100368.28;;;12.58;33.92
15267;BME280;7735;49.144;8.668;2023-04-06T11:29:11;100368.25;;;12.60;33.32
15267;BME280;7735;49.144;8.668;2023-04-06T11:31:40;100369.09;;;12.63;33.08
15267;BME280;7735;49.144;8.668;2023-04-06T11:34:15;100363.78;;;12.69;33.10
15267;BME280;7735;49.144;8.668;2023-04-06T11:36:43;100361.94;;;12.77;33.51
15267;BME280;7735;49.144;8.668;2023-04-06T11:39:11;100354.84;;;12.86;33.68
15267;BME280;7735;49.144;8.668;2023-04-06T11:41:38;100340.81;;;12.93;33.44
15267;BME280;7735;49.144;8.668;2023-04-06T11:44:06;100341.59;;;12.98;33.22
15267;BME280;7735;49.144;8.668;2023-04-06T11:46:34;100343.31;;;13.02;32.83
15267;BME280;7735;49.144;8.668;2023-04-06T11:49:02;100344.97;;;13.08;33.10
15267;BME280;7735;49.144;8.668;2023-04-06T11:51:28;100338.81;;;13.10;32.58
15267;BME280;7735;49.144;8.668;2023-04-06T11:53:55;100337.97;;;13.10;32.58
15267;BME280;7735;49.144;8.668;2023-04-06T11:56:23;100331.88;;;13.09;32.52
15267;BME280;7735;49.144;8.668;2023-04-06T11:58:52;100332.78;;;13.08;32.31
15267;BME280;7735;49.144;8.668;2023-04-06T12:01:18;100331.88;;;13.09;32.20
15267;BME280;7735;49.144;8.668;2023-04-06T12:03:46;100324.88;;;13.11;31.34
15267;BME280;7735;49.144;8.668;2023-04-06T12:06:13;100324.78;;;13.17;30.99
15267;BME280;7735;49.144;8.668;2023-04-06T12:08:40;100316.75;;;13.31;30.32
15267;BME280;7735;49.144;8.668;2023-04-06T12:11:07;100322.69;;;13.41;29.57
15267;BME280;7735;49.144;8.668;2023-04-06T12:13:34;100321.63;;;13.51;30.02
15267;BME280;7735;49.144;8.668;2023-04-06T12:16:01;100327.56;;;13.62;29.29
15267;BME280;7735;49.144;8.668;2023-04-06T12:18:27;100327.41;;;13.71;29.32
15267;BME280;7735;49.144;8.668;2023-04-06T12:20:56;100324.72;;;13.74;29.33
15267;BME280;7735;49.144;8.668;2023-04-06T12:23:23;100316.00;;;13.74;29.33
15267;BME280;7735;49.144;8.668;2023-04-06T12:25:49;100315.91;;;13.80;29.14
15267;BME280;7735;49.144;8.668;2023-04-06T12:28:17;100311.41;;;13.86;29.66
15267;BME280;7735;49.144;8.668;2023-04-06T12:30:45;100308.69;;;13.93;29.49
15267;BME280;7735;49.144;8.668;2023-04-06T12:33:12;100313.66;;;14.06;28.63
15267;BME280;7735;49.144;8.668;2023-04-06T12:35:39;100305.59;;;14.17;28.75
15267;BME280;7735;49.144;8.668;2023-04-06T12:38:07;100309.13;;;14.16;28.77
15267;BME280;7735;49.144;8.668;2023-04-06T12:40:36;100299.63;;;14.10;29.01
15267;BME280;7735;49.144;8.668;2023-04-06T12:43:03;100303.16;;;14.08;28.61
15267;BME280;7735;49.144;8.668;2023-04-06T12:45:30;100298.69;;;14.13;28.84
15267;BME280;7735;49.144;8.668;2023-04-06T12:47:57;100298.34;;;14.31;28.67
15267;BME280;7735;49.144;8.668;2023-04-06T12:50:24;100300.72;;;14.42;28.60
15267;BME280;7735;49.144;8.668;2023-04-06T12:52:51;100291.13;;;14.42;28.89
15267;BME280;7735;49.144;8.668;2023-04-06T12:55:20;100298.19;;;14.37;28.76
15267;BME280;7735;49.144;8.668;2023-04-06T12:57:47;100298.03;;;14.47;28.55
15267;BME280;7735;49.144;8.668;2023-04-06T13:00:14;100282.28;;;14.50;28.56
15267;BME280;7735;49.144;8.668;2023-04-06T13:02:42;100284.81;;;14.53;28.99
15267;BME280;7735;49.144;8.668;2023-04-06T13:05:12;100290.81;;;14.58;28.76
15267;BME280;7735;49.144;8.668;2023-04-06T13:07:39;100287.22;;;14.62;28.62
15267;BME280;7735;49.144;8.668;2023-04-06T13:10:07;100288.09;;;14.62;28.34